Time;durP1;ratioP1;P1;durP2;ratioP2;P2;SDS_P1;SDS_P2;PMS_P1;PMS_P2;Temp;Humidity;BMP_temperature;BMP_pressure;BME280_temperature;BME280_humidity;BME280_pressure;Samples;Min_cycle;Max_cycle;Signal;HPM_P1;HPM_P2
2023/05/24 00:00:00;;;;;;;11.45;2.58;;;;;;;;;;5008389;28;20461;-67
2023/05/24 00:02:25;;;;;;;14.87;2.93;;;;;;;;;;5006791;28;20486;-67
2023/05/24 00:04:51;;;;;;;14.68;2.90;;;;;;;;;;5008701;28;20021;-67
2023/05/24 00:07:16;;;;;;;10.82;2.33;;;;;;;;;;4999356;28;20493;-66
2023/05/24 00:09:42;;;;;;;12.00;2.20;;;;;;;;;;5006336;28;20116;-66
2023/05/24 00:12:07;;;;;;;12.05;2.38;;;;;;;;;;5000042;28;20483;-67
2023/05/24 00:14:32;;;;;;;13.33;2.50;;;;;;;;;;4999712;28;20038;-66
2023/05/24 00:16:57;;;;;;;11.45;2.30;;;;;;;;;;5010007;28;20042;-68
2023/05/24 00:19:22;;;;;;;11.98;2.22;;;;;;;;;;5011643;28;20038;-67
2023/05/24 00:21:48;;;;;;;16.67;2.50;;;;;;;;;;5004299;28;20084;-68
2023/05/24 00:24:13;;;;;;;11.37;2.60;;;;;;;;;;5008845;28;20052;-68
2023/05/24 00:26:38;;;;;;;10.70;1.90;;;;;;;;;;5007024;28;20022;-68
2023/05/24 00:29:04;;;;;;;11.17;2.03;;;;;;;;;;5009525;28;20021;-68
2023/05/24 00:31:29;;;;;;;12.20;2.20;;;;;;;;;;5002352;28;20037;-68
2023/05/24 00:33:54;;;;;;;11.27;2.27;;;;;;;;;;5002794;28;20109;-68
2023/05/24 00:36:19;;;;;;;10.27;2.60;;;;;;;;;;5006479;28;20025;-68
2023/05/24 00:38:44;;;;;;;15.75;2.75;;;;;;;;;;5008909;28;20101;-68
2023/05/24 00:41:10;;;;;;;12.95;2.30;;;;;;;;;;4999995;28;20010;-68
2023/05/24 00:43:36;;;;;;;14.25;2.60;;;;;;;;;;5005362;28;20039;-67
2023/05/24 00:46:10;;;;;;;9.18;2.25;;;;;;;;;;5006827;28;20041;-68
2023/05/24 00:48:35;;;;;;;10.63;2.10;;;;;;;;;;5003297;28;20033;-68
2023/05/24 00:51:00;;;;;;;10.48;2.22;;;;;;;;;;5006519;28;20018;-68
2023/05/24 00:53:25;;;;;;;11.80;2.33;;;;;;;;;;5004179;28;20466;-68
2023/05/24 00:55:50;;;;;;;11.70;2.22;;;;;;;;;;4999047;28;20087;-67
2023/05/24 00:58:16;;;;;;;12.03;2.20;;;;;;;;;;5005452;28;20076;-68
2023/05/24 01:00:41;;;;;;;12.37;2.37;;;;;;;;;;4997727;28;20030;-68
2023/05/24 01:03:07;;;;;;;12.18;2.30;;;;;;;;;;5005942;28;20470;-68
2023/05/24 01:05:32;;;;;;;14.43;2.50;;;;;;;;;;5000039;28;20354;-67
2023/05/24 01:08:01;;;;;;;11.07;2.20;;;;;;;;;;4996489;28;20029;-68
2023/05/24 01:10:26;;;;;;;12.18;1.95;;;;;;;;;;5002082;28;20029;-67
2023/05/24 01:13:09;;;;;;;11.90;2.33;;;;;;;;;;4996978;28;20021;-68
2023/05/24 01:15:43;;;;;;;14.10;2.45;;;;;;;;;;4999836;28;20449;-68
2023/05/24 01:18:30;;;;;;;11.10;2.00;;;;;;;;;;5006286;28;20026;-68
2023/05/24 01:21:15;;;;;;;10.98;2.40;;;;;;;;;;5004755;28;20105;-67
2023/05/24 01:23:50;;;;;;;11.40;2.40;;;;;;;;;;5001095;28;20101;-68
2023/05/24 01:26:31;;;;;;;9.68;1.90;;;;;;;;;;5005092;28;20026;-68
2023/05/24 01:28:58;;;;;;;15.45;2.30;;;;;;;;;;5006007;28;20030;-68
2023/05/24 01:31:24;;;;;;;10.77;2.40;;;;;;;;;;5009295;28;20107;-68
2023/05/24 01:33:49;;;;;;;9.13;2.20;;;;;;;;;;5003110;28;20477;-68
2023/05/24 01:36:14;;;;;;;11.43;2.63;;;;;;;;;;4999228;28;20500;-68
2023/05/24 01:38:40;;;;;;;12.18;2.22;;;;;;;;;;5002339;28;20513;-68
2023/05/24 01:41:17;;;;;;;9.50;2.08;;;;;;;;;;5008884;28;20049;-68
2023/05/24 01:43:47;;;;;;;11.68;2.08;;;;;;;;;;5001520;28;20030;-68
2023/05/24 01:46:18;;;;;;;12.35;2.20;;;;;;;;;;5002765;28;20038;-68
2023/05/24 01:48:56;;;;;;;10.15;2.05;;;;;;;;;;5005300;28;20036;-68
2023/05/24 01:51:21;;;;;;;;;;;;;;;;;;5004486;28;20037;-68
2023/05/24 01:53:48;;;;;;;12.85;1.92;;;;;;;;;;5009323;28;19916;-68
2023/05/24 01:56:14;;;;;;;11.65;2.17;;;;;;;;;;5004101;28;20032;-68
2023/05/24 01:58:41;;;;;;;9.43;2.00;;;;;;;;;;5010638;28;20385;-68
2023/05/24 02:01:06;;;;;;;14.20;2.63;;;;;;;;;;5012091;28;20541;-68
2023/05/24 02:03:31;;;;;;;9.77;1.93;;;;;;;;;;5010389;28;20127;-68
2023/05/24 02:05:56;;;;;;;11.07;2.08;;;;;;;;;;5010454;28;20032;-67
2023/05/24 02:08:21;;;;;;;9.67;2.00;;;;;;;;;;5010773;28;20021;-68
2023/05/24 02:10:47;;;;;;;11.18;2.00;;;;;;;;;;5010656;28;20026;-67
2023/05/24 02:13:12;;;;;;;12.37;1.73;;;;;;;;;;5006363;28;20456;-67
2023/05/24 02:15:37;;;;;;;10.73;2.13;;;;;;;;;;5005891;28;20026;-68
2023/05/24 02:18:02;;;;;;;9.27;1.80;;;;;;;;;;5011930;28;20104;-68
2023/05/24 02:20:29;;;;;;;11.77;1.73;;;;;;;;;;5013209;28;20519;-69
2023/05/24 02:22:54;;;;;;;11.25;1.73;;;;;;;;;;5012252;28;20026;-68
2023/05/24 02:25:20;;;;;;;9.67;2.23;;;;;;;;;;5010626;28;20486;-68
2023/05/24 02:27:46;;;;;;;9.57;2.20;;;;;;;;;;5007870;28;20381;-68
2023/05/24 02:30:12;;;;;;;9.70;1.92;;;;;;;;;;5009562;28;20147;-69
2023/05/24 02:32:37;;;;;;;11.52;2.10;;;;;;;;;;5011786;28;20064;-68
2023/05/24 02:35:02;;;;;;;15.80;2.75;;;;;;;;;;5012728;28;20537;-68
2023/05/24 02:37:27;;;;;;;10.60;2.10;;;;;;;;;;5005333;28;20030;-68
2023/05/24 02:39:53;;;;;;;11.73;1.90;;;;;;;;;;5006391;28;20014;-68
2023/05/24 02:42:18;;;;;;;11.27;2.10;;;;;;;;;;5005929;28;20034;-68
2023/05/24 02:44:46;;;;;;;9.17;2.07;;;;;;;;;;5011534;28;20032;-69
2023/05/24 02:47:11;;;;;;;8.90;1.80;;;;;;;;;;5009176;28;20020;-68
2023/05/24 02:49:37;;;;;;;8.55;1.63;;;;;;;;;;5006677;28;20429;-67
2023/05/24 02:52:02;;;;;;;10.40;1.90;;;;;;;;;;5010304;28;20037;-68
2023/05/24 02:54:27;;;;;;;9.67;2.10;;;;;;;;;;5007904;28;21225;-68
2023/05/24 02:56:52;;;;;;;14.52;2.35;;;;;;;;;;5002572;28;20037;-68
2023/05/24 02:59:17;;;;;;;11.07;2.27;;;;;;;;;;5002754;28;20030;-68
2023/05/24 03:01:43;;;;;;;8.43;1.70;;;;;;;;;;5017567;28;20018;-68
2023/05/24 03:04:08;;;;;;;8.90;1.47;;;;;;;;;;5013416;28;20418;-70
2023/05/24 03:06:33;;;;;;;10.73;2.00;;;;;;;;;;5007764;28;20511;-68
2023/05/24 03:08:58;;;;;;;13.85;1.95;;;;;;;;;;5011462;28;20425;-68
2023/05/24 03:11:23;;;;;;;7.03;1.70;;;;;;;;;;4999593;28;20030;-68
2023/05/24 03:13:48;;;;;;;8.60;1.73;;;;;;;;;;5002342;28;20023;-69
2023/05/24 03:16:14;;;;;;;15.50;2.17;;;;;;;;;;5005992;28;20155;-67
2023/05/24 03:18:39;;;;;;;13.07;2.17;;;;;;;;;;5009050;28;20513;-67
2023/05/24 03:21:04;;;;;;;15.50;1.95;;;;;;;;;;4995437;28;20093;-67
2023/05/24 03:23:29;;;;;;;11.23;2.17;;;;;;;;;;5000197;28;20414;-67
2023/05/24 03:25:55;;;;;;;12.52;2.13;;;;;;;;;;5010197;28;20149;-67
2023/05/24 03:28:21;;;;;;;12.68;2.30;;;;;;;;;;5007880;28;20030;-66
2023/05/24 03:30:46;;;;;;;12.07;1.90;;;;;;;;;;5001564;28;20100;-67
2023/05/24 03:33:11;;;;;;;10.90;2.03;;;;;;;;;;5000471;28;20033;-67
2023/05/24 03:35:36;;;;;;;13.30;2.03;;;;;;;;;;5006828;28;20018;-66
2023/05/24 03:38:01;;;;;;;11.25;2.25;;;;;;;;;;5009328;28;20026;-67
2023/05/24 03:40:31;;;;;;;12.75;2.00;;;;;;;;;;5007864;28;20030;-68
2023/05/24 03:42:56;;;;;;;15.20;2.97;;;;;;;;;;5009221;28;20026;-67
2023/05/24 03:45:21;;;;;;;8.07;1.83;;;;;;;;;;5005274;28;20032;-67
2023/05/24 03:47:46;;;;;;;9.13;1.60;;;;;;;;;;5010645;28;20386;-67
2023/05/24 03:50:13;;;;;;;12.02;2.00;;;;;;;;;;5007710;28;20018;-66
2023/05/24 03:52:38;;;;;;;8.23;1.77;;;;;;;;;;5010061;28;20124;-67
2023/05/24 03:55:03;;;;;;;9.40;1.88;;;;;;;;;;5004509;28;20093;-68
2023/05/24 03:57:28;;;;;;;14.07;2.20;;;;;;;;;;5007185;28;20046;-68
2023/05/24 03:59:53;;;;;;;10.43;1.90;;;;;;;;;;4993431;28;20481;-67
2023/05/24 04:02:18;;;;;;;11.77;1.90;;;;;;;;;;5003446;28;20057;-66
2023/05/24 04:04:44;;;;;;;12.10;1.90;;;;;;;;;;5002442;28;20022;-68
2023/05/24 04:07:10;;;;;;;14.48;1.90;;;;;;;;;;5003166;28;20109;-66
2023/05/24 04:09:35;;;;;;;15.00;2.50;;;;;;;;;;4994707;28;20022;-67
2023/05/24 04:12:01;;;;;;;9.60;2.00;;;;;;;;;;5007604;28;20319;-67
2023/05/24 04:14:26;;;;;;;10.32;1.73;;;;;;;;;;5003866;28;20044;-67
2023/05/24 04:16:52;;;;;;;11.27;2.13;;;;;;;;;;5004291;28;20363;-67
2023/05/24 04:19:17;;;;;;;11.02;1.70;;;;;;;;;;4995411;28;20398;-67
2023/05/24 04:21:43;;;;;;;12.55;1.85;;;;;;;;;;5001917;28;20034;-68
2023/05/24 04:24:08;;;;;;;14.82;2.20;;;;;;;;;;5007044;28;20045;-67
2023/05/24 04:26:33;;;;;;;11.70;1.90;;;;;;;;;;5009550;28;20020;-67
2023/05/24 04:28:59;;;;;;;11.02;1.77;;;;;;;;;;5000728;28;20025;-67
2023/05/24 04:31:25;;;;;;;10.50;1.95;;;;;;;;;;5006738;28;20030;-67
2023/05/24 04:33:51;;;;;;;9.63;1.80;;;;;;;;;;4997463;28;20500;-67
2023/05/24 04:36:16;;;;;;;11.88;1.95;;;;;;;;;;5002965;28;20025;-67
2023/05/24 04:38:41;;;;;;;7.10;1.50;;;;;;;;;;4998733;28;20069;-67
2023/05/24 04:41:07;;;;;;;10.80;2.10;;;;;;;;;;4995895;28;20028;-67
2023/05/24 04:43:33;;;;;;;15.17;1.87;;;;;;;;;;5006261;28;20477;-65
2023/05/24 04:45:58;;;;;;;10.15;2.10;;;;;;;;;;4999681;28;20095;-67
2023/05/24 04:48:23;;;;;;;13.00;1.90;;;;;;;;;;4996072;28;20145;-68
2023/05/24 04:50:55;;;;;;;9.27;1.90;;;;;;;;;;4989057;28;20480;-68
2023/05/24 04:53:20;;;;;;;10.30;2.25;;;;;;;;;;4997290;28;20366;-67
2023/05/24 04:55:46;;;;;;;12.63;2.10;;;;;;;;;;4990050;28;20037;-68
2023/05/24 04:58:11;;;;;;;12.82;1.80;;;;;;;;;;4992667;28;20488;-68
2023/05/24 05:00:37;;;;;;;13.27;1.88;;;;;;;;;;4996930;28;20041;-68
2023/05/24 05:03:02;;;;;;;11.68;1.90;;;;;;;;;;4999768;28;20022;-67
2023/05/24 05:05:27;;;;;;;12.43;1.83;;;;;;;;;;5008102;28;20026;-67
2023/05/24 05:07:52;;;;;;;12.77;2.33;;;;;;;;;;5007446;28;20021;-66
2023/05/24 05:10:17;;;;;;;10.00;1.77;;;;;;;;;;5011197;28;20036;-66
2023/05/24 05:12:43;;;;;;;13.43;1.87;;;;;;;;;;5026868;28;20040;-68
2023/05/24 05:15:08;;;;;;;9.65;1.80;;;;;;;;;;5005228;28;20068;-67
2023/05/24 05:17:34;;;;;;;14.75;1.98;;;;;;;;;;5000504;28;20036;-67
2023/05/24 05:19:59;;;;;;;10.75;2.00;;;;;;;;;;5010711;28;20500;-68
2023/05/24 05:22:24;;;;;;;14.05;1.92;;;;;;;;;;5003143;28;20109;-68
2023/05/24 05:24:50;;;;;;;9.43;1.80;;;;;;;;;;5003892;28;20006;-68
2023/05/24 05:27:15;;;;;;;12.60;2.10;;;;;;;;;;4993581;28;20105;-66
2023/05/24 05:29:41;;;;;;;12.23;2.30;;;;;;;;;;4998199;28;20452;-68
2023/05/24 05:32:06;;;;;;;8.82;2.10;;;;;;;;;;5006455;28;20029;-67
2023/05/24 05:34:31;;;;;;;11.63;1.97;;;;;;;;;;5011871;28;20076;-68
2023/05/24 05:36:56;;;;;;;14.05;2.22;;;;;;;;;;5012927;28;20057;-69
2023/05/24 05:39:21;;;;;;;14.60;2.03;;;;;;;;;;5031679;28;20059;-68
2023/05/24 05:41:46;;;;;;;15.27;2.10;;;;;;;;;;5032601;28;20022;-68
2023/05/24 05:44:12;;;;;;;10.50;1.80;;;;;;;;;;5011340;28;20029;-67
2023/05/24 05:46:37;;;;;;;10.83;2.10;;;;;;;;;;4997082;28;20018;-65
2023/05/24 05:49:02;;;;;;;11.40;2.20;;;;;;;;;;5023247;28;20464;-68
2023/05/24 05:51:28;;;;;;;14.30;2.08;;;;;;;;;;5013911;28;20056;-68
2023/05/24 05:53:53;;;;;;;11.67;2.30;;;;;;;;;;4998974;28;20022;-68
2023/05/24 05:56:18;;;;;;;8.57;1.90;;;;;;;;;;5001259;28;20111;-69
2023/05/24 05:58:43;;;;;;;11.20;2.27;;;;;;;;;;5007342;28;20041;-67
2023/05/24 06:01:08;;;;;;;11.38;1.83;;;;;;;;;;5007856;28;20496;-69
2023/05/24 06:03:33;;;;;;;13.70;1.90;;;;;;;;;;5005435;28;20032;-67
2023/05/24 06:05:58;;;;;;;13.70;2.35;;;;;;;;;;5008319;28;20033;-66
2023/05/24 06:08:24;;;;;;;13.55;2.50;;;;;;;;;;4999159;28;20026;-68
2023/05/24 06:10:49;;;;;;;11.17;2.10;;;;;;;;;;4997251;28;20057;-68
2023/05/24 06:13:14;;;;;;;13.20;2.23;;;;;;;;;;5006058;28;20028;-67
2023/05/24 06:15:39;;;;;;;11.10;2.35;;;;;;;;;;5007422;28;20449;-66
2023/05/24 06:18:04;;;;;;;9.10;2.10;;;;;;;;;;5007034;28;20018;-69
2023/05/24 06:20:30;;;;;;;12.27;1.90;;;;;;;;;;5007731;28;20029;-67
2023/05/24 06:22:55;;;;;;;11.85;2.03;;;;;;;;;;5004750;28;20975;-67
2023/05/24 06:25:23;;;;;;;9.85;2.15;;;;;;;;;;4995240;28;20408;-67
2023/05/24 06:27:48;;;;;;;11.18;2.42;;;;;;;;;;4998655;28;20026;-67
2023/05/24 06:30:13;;;;;;;11.75;2.10;;;;;;;;;;5005705;28;20029;-67
2023/05/24 06:32:38;;;;;;;12.83;2.50;;;;;;;;;;5001881;28;20149;-67
2023/05/24 06:35:04;;;;;;;9.73;2.07;;;;;;;;;;4999514;28;20024;-67
2023/05/24 06:37:29;;;;;;;12.95;2.10;;;;;;;;;;5004502;28;20487;-67
2023/05/24 06:39:55;;;;;;;9.30;1.83;;;;;;;;;;4999461;28;20022;-67
2023/05/24 06:42:20;;;;;;;12.93;2.33;;;;;;;;;;5003069;28;20021;-66
2023/05/24 06:44:45;;;;;;;12.52;2.53;;;;;;;;;;5005497;28;20029;-67
2023/05/24 06:47:10;;;;;;;13.48;2.63;;;;;;;;;;5009913;28;20413;-67
2023/05/24 06:49:35;;;;;;;12.00;2.40;;;;;;;;;;5001276;28;20057;-67
2023/05/24 06:52:00;;;;;;;15.70;2.80;;;;;;;;;;5007239;28;20038;-67
2023/05/24 06:54:26;;;;;;;11.50;2.42;;;;;;;;;;5013246;28;20389;-67
2023/05/24 06:56:51;;;;;;;13.23;2.33;;;;;;;;;;5014070;28;20017;-67
2023/05/24 06:59:16;;;;;;;10.80;2.20;;;;;;;;;;5008867;28;20026;-67
2023/05/24 07:01:42;;;;;;;9.33;2.10;;;;;;;;;;5004216;28;20091;-67
2023/05/24 07:04:08;;;;;;;13.65;2.05;;;;;;;;;;5005510;28;20485;-67
2023/05/24 07:06:33;;;;;;;8.52;2.00;;;;;;;;;;5003629;28;20062;-67
2023/05/24 07:09:00;;;;;;;11.77;2.20;;;;;;;;;;4999834;28;20017;-67
2023/05/24 07:11:26;;;;;;;12.43;2.33;;;;;;;;;;5004065;28;20017;-67
2023/05/24 07:13:51;;;;;;;13.07;2.40;;;;;;;;;;5005109;28;20018;-67
2023/05/24 07:16:16;;;;;;;10.25;2.03;;;;;;;;;;5012678;28;20029;-67
2023/05/24 07:18:41;;;;;;;12.98;2.45;;;;;;;;;;5012393;28;20057;-67
2023/05/24 07:21:06;;;;;;;13.83;2.60;;;;;;;;;;5012285;28;20377;-67
2023/05/24 07:23:32;;;;;;;11.63;2.15;;;;;;;;;;5019670;28;20069;-67
2023/05/24 07:25:57;;;;;;;11.10;2.40;;;;;;;;;;5023897;28;20026;-67
2023/05/24 07:28:22;;;;;;;13.43;3.10;;;;;;;;;;5010078;28;20034;-67
2023/05/24 07:30:48;;;;;;;11.15;2.38;;;;;;;;;;5004188;28;20033;-67
2023/05/24 07:33:13;;;;;;;16.08;2.72;;;;;;;;;;5003172;28;20030;-67
2023/05/24 07:35:38;;;;;;;13.15;2.50;;;;;;;;;;5009405;28;20036;-67
2023/05/24 07:38:04;;;;;;;10.93;2.25;;;;;;;;;;5012654;28;20084;-67
2023/05/24 07:40:29;;;;;;;8.50;2.20;;;;;;;;;;5012177;28;20045;-67
2023/05/24 07:42:55;;;;;;;12.40;2.45;;;;;;;;;;5010977;28;20038;-67
2023/05/24 07:45:20;;;;;;;14.17;2.17;;;;;;;;;;5025702;28;20037;-67
2023/05/24 07:47:45;;;;;;;13.20;2.23;;;;;;;;;;5016275;28;20474;-68
2023/05/24 07:50:10;;;;;;;15.57;2.43;;;;;;;;;;5010017;28;20037;-67
2023/05/24 07:52:37;;;;;;;13.70;2.97;;;;;;;;;;5013380;28;20038;-67
2023/05/24 07:55:02;;;;;;;11.15;2.30;;;;;;;;;;5009515;28;20465;-67
2023/05/24 07:57:28;;;;;;;10.40;2.00;;;;;;;;;;5018228;28;20025;-67
2023/05/24 07:59:53;;;;;;;10.53;2.20;;;;;;;;;;5002511;28;20037;-66
2023/05/24 08:02:18;;;;;;;12.60;2.23;;;;;;;;;;5020600;28;21019;-67
2023/05/24 08:04:45;;;;;;;16.40;2.53;;;;;;;;;;5032248;28;20132;-67
2023/05/24 08:07:10;;;;;;;12.48;2.38;;;;;;;;;;5033730;28;20155;-67
2023/05/24 08:09:37;;;;;;;11.30;2.28;;;;;;;;;;5027126;28;20479;-67
2023/05/24 08:12:02;;;;;;;11.63;2.33;;;;;;;;;;5031696;28;20036;-66
2023/05/24 08:14:28;;;;;;;11.55;2.13;;;;;;;;;;5012082;28;20026;-66
2023/05/24 08:16:53;;;;;;;17.80;2.23;;;;;;;;;;5000038;28;20389;-68
2023/05/24 08:19:18;;;;;;;12.73;2.15;;;;;;;;;;4998290;28;20017;-68
2023/05/24 08:21:43;;;;;;;10.90;2.15;;;;;;;;;;5009613;28;20021;-67
2023/05/24 08:24:08;;;;;;;9.80;2.30;;;;;;;;;;5011907;28;20455;-69
2023/05/24 08:26:33;;;;;;;11.85;2.28;;;;;;;;;;5011910;28;20483;-67
2023/05/24 08:28:59;;;;;;;11.95;2.40;;;;;;;;;;5008667;28;20037;-66
2023/05/24 08:31:24;;;;;;;12.60;2.25;;;;;;;;;;5011070;28;20038;-67
2023/05/24 08:33:50;;;;;;;10.25;2.15;;;;;;;;;;5009861;28;22857;-67
2023/05/24 08:36:16;;;;;;;13.83;2.47;;;;;;;;;;5005113;28;20033;-68
2023/05/24 08:38:41;;;;;;;13.02;2.65;;;;;;;;;;5006056;28;20028;-67
2023/05/24 08:41:07;;;;;;;11.82;2.08;;;;;;;;;;5001345;28;20364;-67
2023/05/24 08:43:32;;;;;;;13.05;2.50;;;;;;;;;;5011435;28;20125;-67
2023/05/24 08:45:57;;;;;;;11.43;2.47;;;;;;;;;;5008754;28;20034;-68
2023/05/24 08:48:23;;;;;;;10.67;2.33;;;;;;;;;;5019015;28;20021;-67
2023/05/24 08:50:49;;;;;;;12.18;2.60;;;;;;;;;;5021381;28;20120;-67
2023/05/24 08:53:14;;;;;;;14.35;2.17;;;;;;;;;;5010993;28;20089;-67
2023/05/24 08:55:41;;;;;;;12.73;2.78;;;;;;;;;;5011120;28;20026;-66
2023/05/24 08:58:07;;;;;;;11.70;2.40;;;;;;;;;;5010899;28;20025;-66
2023/05/24 09:00:32;;;;;;;11.00;2.75;;;;;;;;;;5011086;28;20362;-66
2023/05/24 09:02:57;;;;;;;14.13;2.58;;;;;;;;;;5020667;28;20378;-68
2023/05/24 09:05:24;;;;;;;13.83;2.50;;;;;;;;;;5026700;28;20034;-67
2023/05/24 09:07:52;;;;;;;10.93;2.53;;;;;;;;;;5001776;28;20440;-66
2023/05/24 09:10:18;;;;;;;16.00;2.63;;;;;;;;;;4990704;28;20368;-67
2023/05/24 09:12:44;;;;;;;16.10;2.72;;;;;;;;;;5015171;28;20484;-67
2023/05/24 09:15:10;;;;;;;11.82;2.30;;;;;;;;;;5026839;28;20026;-67
2023/05/24 09:17:36;;;;;;;10.13;2.33;;;;;;;;;;5025969;28;20025;-67
2023/05/24 09:20:05;;;;;;;13.40;2.92;;;;;;;;;;5025934;28;20127;-66
2023/05/24 09:22:32;;;;;;;14.60;2.72;;;;;;;;;;5009386;28;20037;-66
2023/05/24 09:24:59;;;;;;;16.13;3.78;;;;;;;;;;5020650;28;20455;-67
2023/05/24 09:27:25;;;;;;;12.65;2.97;;;;;;;;;;5030569;28;20025;-67
2023/05/24 09:29:53;;;;;;;14.32;2.72;;;;;;;;;;5029896;28;20392;-68
2023/05/24 09:32:22;;;;;;;10.25;2.72;;;;;;;;;;5022829;28;20228;-68
2023/05/24 09:34:47;;;;;;;13.95;2.88;;;;;;;;;;5025866;28;20482;-66
2023/05/24 09:37:16;;;;;;;9.95;2.50;;;;;;;;;;5000931;28;20030;-68
2023/05/24 09:39:46;;;;;;;12.82;2.55;;;;;;;;;;5001175;28;20038;-68
2023/05/24 09:42:27;;;;;;;14.25;3.08;;;;;;;;;;5007577;28;20091;-68
2023/05/24 09:45:01;;;;;;;13.70;2.65;;;;;;;;;;5010676;28;20022;-68
2023/05/24 09:47:30;;;;;;;14.32;2.50;;;;;;;;;;4996280;28;20517;-68
2023/05/24 09:49:55;;;;;;;11.10;2.45;;;;;;;;;;4990746;28;20037;-67
2023/05/24 09:52:20;;;;;;;11.50;2.90;;;;;;;;;;4995971;28;20394;-68
2023/05/24 09:54:46;;;;;;;12.30;2.88;;;;;;;;;;5026894;28;20439;-68
2023/05/24 09:57:14;;;;;;;12.68;3.03;;;;;;;;;;5024803;28;20030;-68
2023/05/24 09:59:40;;;;;;;12.27;2.60;;;;;;;;;;5002100;28;20062;-68
2023/05/24 10:02:11;;;;;;;11.52;2.63;;;;;;;;;;5001653;28;20106;-65
2023/05/24 10:04:39;;;;;;;12.73;2.80;;;;;;;;;;5012587;28;20026;-69
2023/05/24 10:07:05;;;;;;;12.35;2.70;;;;;;;;;;5016132;28;20026;-69
2023/05/24 10:09:32;;;;;;;12.07;2.60;;;;;;;;;;5015007;28;20025;-68
2023/05/24 10:12:03;;;;;;;14.70;2.97;;;;;;;;;;5018980;28;20033;-69
2023/05/24 10:14:30;;;;;;;13.07;2.67;;;;;;;;;;5030992;28;20241;-67
2023/05/24 10:16:55;;;;;;;13.15;2.92;;;;;;;;;;5033617;28;20079;-68
2023/05/24 10:19:22;;;;;;;11.55;2.80;;;;;;;;;;5005147;28;20017;-66
2023/05/24 10:21:48;;;;;;;13.95;2.78;;;;;;;;;;4996966;28;20026;-66
2023/05/24 10:24:18;;;;;;;14.93;3.47;;;;;;;;;;5020292;28;20037;-66
2023/05/24 10:26:46;;;;;;;14.88;3.10;;;;;;;;;;5031101;28;20060;-67
2023/05/24 10:29:16;;;;;;;14.27;2.80;;;;;;;;;;5033160;28;20036;-66
2023/05/24 10:31:42;;;;;;;11.48;2.58;;;;;;;;;;5032152;28;20370;-66
2023/05/24 10:34:08;;;;;;;11.85;2.97;;;;;;;;;;5007182;28;20045;-66
2023/05/24 10:36:33;;;;;;;8.63;2.50;;;;;;;;;;5028462;28;20032;-68
2023/05/24 10:38:59;;;;;;;10.73;2.70;;;;;;;;;;5028060;28;20029;-68
2023/05/24 10:41:27;;;;;;;10.67;3.00;;;;;;;;;;5007383;28;20022;-67
2023/05/24 10:43:53;;;;;;;11.60;2.97;;;;;;;;;;5021912;28;20864;-67
2023/05/24 10:46:19;;;;;;;12.68;2.90;;;;;;;;;;5027874;28;20045;-67
2023/05/24 10:48:57;;;;;;;13.50;3.28;;;;;;;;;;5003902;28;20079;-66
2023/05/24 10:51:31;;;;;;;13.15;3.10;;;;;;;;;;4994056;28;20026;-66
2023/05/24 10:53:57;;;;;;;13.35;2.63;;;;;;;;;;5006835;28;20095;-65
2023/05/24 10:56:22;;;;;;;12.05;2.47;;;;;;;;;;5032782;28;20504;-68
2023/05/24 10:58:50;;;;;;;11.80;2.70;;;;;;;;;;5032549;28;20022;-66
2023/05/24 11:01:28;;;;;;;12.18;2.83;;;;;;;;;;5022892;28;20108;-66
2023/05/24 11:04:10;;;;;;;13.45;2.80;;;;;;;;;;5010728;28;20168;-66
2023/05/24 11:06:48;;;;;;;16.67;2.83;;;;;;;;;;5004221;28;20030;-67
2023/05/24 11:09:13;;;;;;;;;;;;;;;;;;4994724;28;20109;-66
2023/05/24 11:11:43;;;;;;;12.20;3.17;;;;;;;;;;5004724;28;20005;-66
2023/05/24 11:14:09;;;;;;;10.65;2.70;;;;;;;;;;5020847;28;20443;-66
2023/05/24 11:16:38;;;;;;;9.48;2.60;;;;;;;;;;5032057;28;20075;-67
2023/05/24 11:19:10;;;;;;;10.13;3.00;;;;;;;;;;5031607;28;20025;-66
2023/05/24 11:21:36;;;;;;;12.35;2.50;;;;;;;;;;5008522;28;20029;-66
2023/05/24 11:24:02;;;;;;;11.80;2.50;;;;;;;;;;5010758;28;20077;-67
2023/05/24 11:26:27;;;;;;;;;;;;;;;;;;5009610;28;20029;-66
2023/05/24 11:28:53;;;;;;;12.10;2.83;;;;;;;;;;5011155;28;19909;-67
2023/05/24 11:31:25;;;;;;;10.07;2.67;;;;;;;;;;5007974;28;20088;-66
2023/05/24 11:33:50;;;;;;;11.50;3.20;;;;;;;;;;5012787;28;20038;-67
2023/05/24 11:36:16;;;;;;;14.13;2.90;;;;;;;;;;5016458;28;20020;-66
2023/05/24 11:38:41;;;;;;;11.93;2.90;;;;;;;;;;5031895;28;20481;-67
2023/05/24 11:41:07;;;;;;;11.40;2.53;;;;;;;;;;5019437;28;20022;-66
2023/05/24 11:43:32;;;;;;;12.57;2.92;;;;;;;;;;5003699;28;20560;-66
2023/05/24 11:45:57;;;;;;;10.97;2.83;;;;;;;;;;5010820;28;20117;-67
2023/05/24 11:48:23;;;;;;;10.00;2.47;;;;;;;;;;5024064;28;20033;-66
2023/05/24 11:50:48;;;;;;;13.13;2.38;;;;;;;;;;5009167;28;20474;-66
2023/05/24 11:53:15;;;;;;;13.00;2.60;;;;;;;;;;5032086;28;20046;-67
2023/05/24 11:55:40;;;;;;;12.77;2.80;;;;;;;;;;5024974;28;20018;-67
2023/05/24 11:58:10;;;;;;;11.52;2.63;;;;;;;;;;5026835;28;20979;-66
2023/05/24 12:00:35;;;;;;;10.55;2.60;;;;;;;;;;5003609;28;20084;-66
2023/05/24 12:03:05;;;;;;;14.93;3.20;;;;;;;;;;4993739;28;20550;-66
2023/05/24 12:05:31;;;;;;;11.35;2.90;;;;;;;;;;4994729;28;20520;-68
2023/05/24 12:08:00;;;;;;;12.77;2.85;;;;;;;;;;5030242;28;20045;-66
2023/05/24 12:10:25;;;;;;;12.60;2.72;;;;;;;;;;5031175;28;20028;-68
2023/05/24 12:12:51;;;;;;;11.00;2.88;;;;;;;;;;5018802;28;20014;-68
2023/05/24 12:15:17;;;;;;;11.20;2.88;;;;;;;;;;5010572;28;20088;-68
2023/05/24 12:17:42;;;;;;;11.35;3.30;;;;;;;;;;5009028;28;20100;-68
2023/05/24 12:20:08;;;;;;;11.13;3.40;;;;;;;;;;5012348;28;20452;-68
2023/05/24 12:22:34;;;;;;;13.73;3.05;;;;;;;;;;5012731;28;20088;-68
2023/05/24 12:24:59;;;;;;;11.97;3.20;;;;;;;;;;5012814;28;20034;-69
2023/05/24 12:27:26;;;;;;;11.13;2.67;;;;;;;;;;5016998;28;20464;-67
2023/05/24 12:29:51;;;;;;;12.50;3.42;;;;;;;;;;5031102;28;20025;-68
2023/05/24 12:32:16;;;;;;;10.88;2.88;;;;;;;;;;5007249;28;20021;-67
2023/05/24 12:34:42;;;;;;;10.63;2.90;;;;;;;;;;4996126;28;20385;-68
2023/05/24 12:37:07;;;;;;;11.63;3.30;;;;;;;;;;5003670;28;20021;-69
2023/05/24 12:39:35;;;;;;;13.38;3.15;;;;;;;;;;5023127;28;20478;-68
2023/05/24 12:42:01;;;;;;;17.08;3.30;;;;;;;;;;5000859;28;20061;-68
2023/05/24 12:44:26;;;;;;;14.52;3.10;;;;;;;;;;5002419;28;20037;-68
2023/05/24 12:46:52;;;;;;;11.75;2.90;;;;;;;;;;5006951;28;20068;-68
2023/05/24 12:49:17;;;;;;;11.20;3.10;;;;;;;;;;5031379;28;20021;-68
2023/05/24 12:51:43;;;;;;;10.63;2.85;;;;;;;;;;5010625;28;20034;-67
2023/05/24 12:54:08;;;;;;;9.73;2.57;;;;;;;;;;5002917;28;20527;-67
2023/05/24 12:56:33;;;;;;;12.25;2.83;;;;;;;;;;5010452;28;20022;-68
2023/05/24 12:58:59;;;;;;;12.77;3.00;;;;;;;;;;5021317;28;20025;-66
2023/05/24 13:01:24;;;;;;;14.05;3.10;;;;;;;;;;5030611;28;20112;-68
2023/05/24 13:03:49;;;;;;;14.45;3.45;;;;;;;;;;5026197;28;20377;-68
2023/05/24 13:06:15;;;;;;;11.57;3.03;;;;;;;;;;5010364;28;20052;-68
2023/05/24 13:08:41;;;;;;;11.27;3.20;;;;;;;;;;5018141;28;20035;-70
2023/05/24 13:11:06;;;;;;;11.05;3.15;;;;;;;;;;5019246;28;20064;-67
2023/05/24 13:13:31;;;;;;;11.00;2.95;;;;;;;;;;4999485;28;20037;-67
2023/05/24 13:15:56;;;;;;;10.30;2.77;;;;;;;;;;5015137;28;20426;-68
2023/05/24 13:18:21;;;;;;;13.70;3.30;;;;;;;;;;5023695;28;20998;-67
2023/05/24 13:20:47;;;;;;;13.53;3.33;;;;;;;;;;5012207;28;20033;-67
2023/05/24 13:23:12;;;;;;;10.45;2.78;;;;;;;;;;4996032;28;20022;-67
2023/05/24 13:25:37;;;;;;;12.30;3.15;;;;;;;;;;4998249;28;20121;-67
2023/05/24 13:28:02;;;;;;;11.33;2.67;;;;;;;;;;5010794;28;20099;-67
2023/05/24 13:30:27;;;;;;;13.13;2.92;;;;;;;;;;5009938;28;20378;-68
2023/05/24 13:32:53;;;;;;;13.20;2.88;;;;;;;;;;5008772;28;20017;-66
2023/05/24 13:35:18;;;;;;;11.18;2.90;;;;;;;;;;5010700;28;20025;-66
2023/05/24 13:37:44;;;;;;;17.42;3.80;;;;;;;;;;5008005;28;20116;-67
2023/05/24 13:40:09;;;;;;;14.52;3.13;;;;;;;;;;4994761;28;20018;-67
2023/05/24 13:42:35;;;;;;;11.70;3.15;;;;;;;;;;5009653;28;20026;-67
2023/05/24 13:45:00;;;;;;;11.82;2.83;;;;;;;;;;5013767;28;20025;-67
2023/05/24 13:47:25;;;;;;;11.57;2.80;;;;;;;;;;5004790;28;20557;-67
2023/05/24 13:49:50;;;;;;;12.98;3.08;;;;;;;;;;5004399;28;20026;-66
2023/05/24 13:52:15;;;;;;;13.37;2.80;;;;;;;;;;5011817;28;20033;-66
2023/05/24 13:54:41;;;;;;;13.30;2.95;;;;;;;;;;5006484;28;20014;-68
2023/05/24 13:57:06;;;;;;;11.67;3.03;;;;;;;;;;5001583;28;20023;-66
2023/05/24 13:59:31;;;;;;;12.73;2.73;;;;;;;;;;5000679;28;20017;-66
2023/05/24 14:01:56;;;;;;;12.60;3.17;;;;;;;;;;5014497;28;20029;-66
2023/05/24 14:04:21;;;;;;;12.00;3.30;;;;;;;;;;5014527;28;20045;-68
2023/05/24 14:06:46;;;;;;;9.77;2.80;;;;;;;;;;4996627;28;20402;-67
2023/05/24 14:09:12;;;;;;;11.00;2.80;;;;;;;;;;5005049;28;20014;-66
2023/05/24 14:11:37;;;;;;;9.83;2.53;;;;;;;;;;5011708;28;20014;-67
2023/05/24 14:14:02;;;;;;;11.00;3.10;;;;;;;;;;5012518;28;20100;-67
2023/05/24 14:16:27;;;;;;;10.03;2.93;;;;;;;;;;5009065;28;20484;-67
2023/05/24 14:18:53;;;;;;;12.60;3.20;;;;;;;;;;5013190;28;20077;-68
2023/05/24 14:21:18;;;;;;;11.45;2.83;;;;;;;;;;5000765;28;20060;-67
2023/05/24 14:23:43;;;;;;;12.18;2.88;;;;;;;;;;5010861;28;20029;-67
2023/05/24 14:26:08;;;;;;;11.50;2.77;;;;;;;;;;4999634;28;20073;-68